Etusivu
METAR-TAF:

METAR-TAF

Lentoasemat :

Igloolikin lentoasema

Igloolik, Nunavut, Kanada

Leveyspiiri: 69-22N, Pituuspiiri: 081-49W, korkeus merenpinnasta: 51 m

Tämänhetkinen sää

Tämä raportti tehtiin 40 minuuttia sitten, kello 16.00 UTC
Tuuli 9 kn pohjoisesta
Lämpötila -31°C
Kosteus 75%
Ilmanpaine 1025 hPa
Näkyvyys: 24.1 km
Muutamia pilviä 5200 ft:n korkeudessa

METAR: CYGT 251600Z 35009KT 15SM FEW052 M31/M34 A3026 RMK SC1 SLP260

Aika: 11:40 (16:40 UTC)

Sääennuste

Tämä raportti tehtiin 4 tuntia ja 2 minuuttia sitten, kello 12.38 UTC
Ennuste voimassa 25. päivästä klo 13 UTC - 25. päivään klo 22 UTC
Tuuli 10 kn pohjoisen/luoteesta
Näkyvyys: 10 km
Muutamia pilviä 14000 ft:n korkeudessa

TAF: CYGT 251238Z 2513/2522 33010KT P6SM FEW140 RMK NXT FCST BY 251900Z

Säähavainnot ja -ennusteet yli 4000 lentoasemalta (METAR- ja TAF-raportit).

Käytössä olevat sääasemat on merkitty karttaan keltaisilla ja punaisilla pisteillä.

Aseta hiiri pisteen päälle nähdäksesi sääaseman nimen.

Klikkaa sitten nähdäksesi säähavainnot ja -ennusteet.

Kartan vaihtaminen: klikkaa mustalla rastilla varustettuja vihreitä pisteitä, niin voit zoomata sisään; viivalla varustettua vihreää pistettä, niin voit zoomata ulos tai vihreitä nuolia, niin pääset viereisille kartoille.


METAR-TAF: